createdAt,value
2018-12-22T00:02:25.125Z,5.74
2018-12-22T00:04:53.324Z,5.73
2018-12-22T00:07:21.496Z,5.76
2018-12-22T00:09:49.700Z,5.78
2018-12-22T00:12:17.963Z,5.77
2018-12-22T00:14:46.187Z,5.74
2018-12-22T00:17:14.392Z,5.73
2018-12-22T00:19:42.572Z,5.70
2018-12-22T00:22:10.777Z,5.71
2018-12-22T00:24:38.952Z,5.77
2018-12-22T00:27:07.283Z,5.75
2018-12-22T00:29:35.452Z,5.77
2018-12-22T00:32:03.629Z,5.72
2018-12-22T00:34:31.849Z,5.67
2018-12-22T00:37:00.012Z,5.71
2018-12-22T00:39:28.188Z,5.69
2018-12-22T00:41:56.408Z,5.60
2018-12-22T00:44:24.580Z,5.63
2018-12-22T00:46:52.916Z,5.63
2018-12-22T00:49:21.088Z,5.63
2018-12-22T00:51:49.300Z,5.60
2018-12-22T00:54:18.101Z,5.58
2018-12-22T00:56:46.377Z,5.58
2018-12-22T00:59:14.604Z,5.53
2018-12-22T01:01:42.780Z,5.60
2018-12-22T01:04:11.000Z,5.55
2018-12-22T01:06:39.316Z,5.58
2018-12-22T01:09:07.685Z,5.51
2018-12-22T01:11:36.052Z,5.53
2018-12-22T01:14:04.377Z,5.55
2018-12-22T01:16:32.548Z,5.50
2018-12-22T01:19:00.717Z,5.54
2018-12-22T01:21:28.948Z,5.57
2018-12-22T01:23:57.165Z,5.56
2018-12-22T01:26:25.437Z,5.54
2018-12-22T01:28:53.661Z,5.59
2018-12-22T01:31:21.834Z,5.55
2018-12-22T01:33:50.012Z,5.56
2018-12-22T01:36:18.230Z,5.59
2018-12-22T01:38:46.436Z,5.61
2018-12-22T01:41:14.663Z,5.63
2018-12-22T01:43:42.912Z,5.59
2018-12-22T01:46:11.080Z,5.67
2018-12-22T01:48:39.302Z,5.64
2018-12-22T01:51:07.564Z,5.68
2018-12-22T01:53:35.794Z,5.65
2018-12-22T01:56:04.176Z,5.65
2018-12-22T01:58:32.460Z,5.64
2018-12-22T02:01:00.725Z,5.63
2018-12-22T02:03:28.940Z,5.59
2018-12-22T02:05:57.117Z,5.57
2018-12-22T02:08:25.334Z,5.56
2018-12-22T02:10:53.504Z,5.59
2018-12-22T02:13:21.680Z,5.58
2018-12-22T02:15:49.880Z,5.53
2018-12-22T02:18:18.157Z,5.51
2018-12-22T02:20:46.473Z,5.57
2018-12-22T02:23:14.700Z,5.52
2018-12-22T02:25:42.872Z,5.55
2018-12-22T02:28:11.092Z,5.53
2018-12-22T02:30:39.267Z,5.48
2018-12-22T02:33:07.487Z,5.50
2018-12-22T02:35:35.688Z,5.47
2018-12-22T02:38:03.961Z,5.45
2018-12-22T02:40:32.180Z,5.48
2018-12-22T02:43:00.493Z,5.47
2018-12-22T02:45:28.666Z,5.54
2018-12-22T02:47:56.840Z,5.53
2018-12-22T02:50:25.100Z,5.49
2018-12-22T02:52:53.281Z,5.52
2018-12-22T02:55:21.504Z,5.53
2018-12-22T02:57:49.734Z,5.57
2018-12-22T03:00:18.093Z,5.52
2018-12-22T03:02:46.312Z,5.55
2018-12-22T03:05:14.517Z,5.53
2018-12-22T03:07:42.696Z,5.56
2018-12-22T03:10:11.025Z,5.57
2018-12-22T03:12:39.192Z,5.64
2018-12-22T03:15:07.448Z,5.57
2018-12-22T03:17:35.644Z,5.63
2018-12-22T03:20:04.180Z,5.66
2018-12-22T03:22:32.369Z,5.64
2018-12-22T03:25:00.664Z,5.65
2018-12-22T03:27:28.875Z,5.66
2018-12-22T03:29:57.053Z,5.63
2018-12-22T03:32:25.381Z,5.66
2018-12-22T03:34:53.584Z,5.65
2018-12-22T03:37:21.755Z,5.68
2018-12-22T03:39:49.963Z,5.71
2018-12-22T03:42:18.160Z,5.66
2018-12-22T03:44:46.374Z,5.54
2018-12-22T03:47:14.861Z,5.48
2018-12-22T03:49:43.178Z,5.40
2018-12-22T03:52:11.388Z,5.45
2018-12-22T03:54:39.613Z,5.38
2018-12-22T03:57:07.826Z,5.38
2018-12-22T03:59:36.032Z,5.42
2018-12-22T04:02:04.261Z,5.54
2018-12-22T04:04:32.424Z,5.58
2018-12-22T04:07:00.610Z,5.57
2018-12-22T04:09:28.920Z,5.50
2018-12-22T04:11:57.096Z,5.46
2018-12-22T04:14:25.310Z,5.54
2018-12-22T04:16:53.515Z,5.59
2018-12-22T04:19:21.841Z,5.63
2018-12-22T04:21:50.058Z,5.65
2018-12-22T04:24:18.224Z,5.59
2018-12-22T04:26:46.431Z,5.62
2018-12-22T04:29:14.675Z,5.59
2018-12-22T04:31:42.971Z,5.62
2018-12-22T04:34:11.245Z,5.70
2018-12-22T04:36:39.417Z,5.77
2018-12-22T04:39:08.150Z,5.64
2018-12-22T04:41:36.373Z,5.70
2018-12-22T04:44:04.650Z,5.80
2018-12-22T04:46:32.866Z,5.75
2018-12-22T04:49:01.035Z,5.71
2018-12-22T04:51:29.351Z,5.75
2018-12-22T04:53:57.525Z,5.71
2018-12-22T04:56:25.761Z,5.74
2018-12-22T04:58:53.964Z,5.72
2018-12-22T05:01:22.168Z,5.65
2018-12-22T05:03:50.376Z,5.66
2018-12-22T05:06:18.552Z,5.72
2018-12-22T05:08:46.747Z,5.85
2018-12-22T05:11:14.952Z,5.87
2018-12-22T05:13:43.141Z,5.72
2018-12-22T05:16:11.431Z,5.72
2018-12-22T05:18:39.641Z,5.78
2018-12-22T05:21:07.845Z,5.84
2018-12-22T05:23:36.141Z,5.72
2018-12-22T05:26:04.326Z,5.65
2018-12-22T05:28:32.528Z,5.75
2018-12-22T05:31:00.700Z,5.76
2018-12-22T05:33:28.925Z,5.88
2018-12-22T05:35:57.139Z,5.92
2018-12-22T05:38:25.320Z,5.90
2018-12-22T05:40:53.534Z,5.79
2018-12-22T05:43:21.711Z,5.76
2018-12-22T05:45:49.929Z,5.72
2018-12-22T05:48:18.118Z,5.71
2018-12-22T05:50:46.337Z,5.67
2018-12-22T05:53:14.508Z,5.73
2018-12-22T05:55:42.686Z,5.83
2018-12-22T05:58:10.908Z,5.83
2018-12-22T06:00:39.116Z,5.89
2018-12-22T06:03:07.377Z,5.79
2018-12-22T06:05:35.554Z,5.82
2018-12-22T06:08:03.736Z,5.84
2018-12-22T06:10:31.948Z,5.72
2018-12-22T06:13:00.215Z,5.71
2018-12-22T06:15:28.386Z,5.70
2018-12-22T06:17:56.592Z,5.74
2018-12-22T06:20:24.887Z,5.71
2018-12-22T06:22:53.104Z,5.78
2018-12-22T06:25:21.318Z,5.80
2018-12-22T06:27:49.487Z,5.75
2018-12-22T06:30:17.708Z,5.84
2018-12-22T06:32:45.897Z,5.81
2018-12-22T06:35:14.117Z,5.76
2018-12-22T06:37:42.288Z,5.74
2018-12-22T06:40:10.459Z,5.67
2018-12-22T06:42:38.692Z,5.62
2018-12-22T06:45:07.093Z,5.48
2018-12-22T06:47:35.309Z,5.41
2018-12-22T06:50:03.603Z,5.45
2018-12-22T06:52:31.820Z,5.41
2018-12-22T06:55:00.162Z,5.46
2018-12-22T06:57:28.445Z,5.43
2018-12-22T06:59:56.641Z,5.38
2018-12-22T07:02:24.865Z,5.41
2018-12-22T07:04:53.056Z,5.42
2018-12-22T07:07:21.322Z,5.41
2018-12-22T07:09:49.536Z,5.35
2018-12-22T07:12:17.776Z,5.43
2018-12-22T07:14:46.005Z,5.40
2018-12-22T07:17:14.229Z,5.37
2018-12-22T07:19:42.445Z,5.47
2018-12-22T07:22:10.684Z,5.50
2018-12-22T07:24:38.898Z,5.50
2018-12-22T07:27:07.076Z,5.39
2018-12-22T07:29:35.304Z,5.41
2018-12-22T07:32:03.487Z,5.40
2018-12-22T07:34:31.724Z,5.20
2018-12-22T07:37:00.021Z,5.19
2018-12-22T07:39:28.378Z,4.96
2018-12-22T07:41:56.588Z,4.90
2018-12-22T07:44:24.792Z,5.04
2018-12-22T07:46:53.036Z,5.16
2018-12-22T07:49:21.204Z,5.19
2018-12-22T07:51:49.385Z,5.24
2018-12-22T07:54:17.620Z,5.28
2018-12-22T07:56:45.848Z,5.30
2018-12-22T07:59:14.022Z,5.39
2018-12-22T08:01:42.249Z,5.45
2018-12-22T08:04:10.722Z,5.40
2018-12-22T08:06:38.929Z,5.40
2018-12-22T08:09:07.832Z,5.41
2018-12-22T08:11:36.080Z,5.48
2018-12-22T08:14:04.637Z,5.58
2018-12-22T08:16:32.836Z,5.63
2018-12-22T08:19:01.086Z,5.59
2018-12-22T08:21:29.345Z,5.64
2018-12-22T08:23:57.532Z,5.71
2018-12-22T08:26:25.760Z,5.81
2018-12-22T08:28:53.976Z,5.85
2018-12-22T08:31:23.201Z,5.82
2018-12-22T08:33:51.510Z,5.67
2018-12-22T08:36:19.690Z,5.73
2018-12-22T08:38:47.872Z,5.90
2018-12-22T08:41:16.190Z,6.07
2018-12-22T08:43:44.368Z,6.13
2018-12-22T08:46:12.556Z,6.16
2018-12-22T08:48:40.784Z,6.22
2018-12-22T08:51:09.088Z,6.20
2018-12-22T08:53:37.304Z,6.18
2018-12-22T08:56:05.477Z,6.33
2018-12-22T08:58:33.693Z,6.44
2018-12-22T09:01:01.922Z,6.53
2018-12-22T09:03:30.132Z,6.49
2018-12-22T09:05:58.304Z,6.54
2018-12-22T09:08:26.520Z,6.61
2018-12-22T09:10:54.720Z,6.68
2018-12-22T09:13:23.053Z,6.66
2018-12-22T09:15:51.275Z,6.58
2018-12-22T09:18:19.493Z,6.45
2018-12-22T09:20:47.745Z,6.60
2018-12-22T09:23:16.049Z,6.64
2018-12-22T09:25:44.238Z,6.67
2018-12-22T09:28:12.428Z,6.58
2018-12-22T09:30:40.689Z,6.50
2018-12-22T09:33:08.973Z,6.42
2018-12-22T09:35:37.211Z,6.37
2018-12-22T09:38:05.488Z,6.12
2018-12-22T09:40:33.910Z,6.15
2018-12-22T09:43:02.100Z,6.22
2018-12-22T09:45:30.336Z,6.35
2018-12-22T09:47:58.713Z,6.40
2018-12-22T09:50:26.957Z,6.52
2018-12-22T09:52:55.135Z,6.55
2018-12-22T09:55:23.333Z,6.66
2018-12-22T09:57:51.600Z,6.68
2018-12-22T10:00:19.936Z,6.75
2018-12-22T10:02:48.184Z,6.78
2018-12-22T10:05:16.355Z,6.87
2018-12-22T10:07:44.585Z,6.83
2018-12-22T10:10:16.216Z,6.83
2018-12-22T10:12:44.444Z,6.89
2018-12-22T10:15:12.724Z,6.97
2018-12-22T10:17:41.101Z,6.97
2018-12-22T10:20:09.775Z,6.92
2018-12-22T10:22:37.989Z,6.97
2018-12-22T10:25:09.929Z,6.98
2018-12-22T10:27:38.144Z,7.06
2018-12-22T10:30:10.300Z,7.16
2018-12-22T10:32:38.529Z,7.27
2018-12-22T10:35:09.697Z,7.27
2018-12-22T10:37:37.915Z,7.33
2018-12-22T10:40:06.875Z,7.37
2018-12-22T10:42:35.049Z,7.33
2018-12-22T10:45:03.268Z,7.23
2018-12-22T10:47:31.436Z,7.19
2018-12-22T10:49:59.614Z,7.14
2018-12-22T10:52:27.815Z,7.17
2018-12-22T10:54:55.997Z,7.19
2018-12-22T10:57:24.208Z,7.26
2018-12-22T10:59:52.381Z,7.15
2018-12-22T11:02:20.600Z,7.06
2018-12-22T11:04:48.786Z,7.10
2018-12-22T11:07:16.957Z,7.22
2018-12-22T11:09:45.212Z,7.42
2018-12-22T11:12:13.390Z,7.46
2018-12-22T11:14:41.648Z,7.37
2018-12-22T11:17:09.884Z,7.58
2018-12-22T11:19:38.083Z,7.69
2018-12-22T11:22:06.280Z,7.85
2018-12-22T11:24:34.497Z,7.95
2018-12-22T11:27:02.700Z,8.01
2018-12-22T11:29:30.903Z,8.08
2018-12-22T11:31:59.097Z,7.88
2018-12-22T11:34:27.348Z,7.69
2018-12-22T11:36:55.569Z,7.70
2018-12-22T11:39:23.767Z,7.63
2018-12-22T11:41:51.979Z,7.71
2018-12-22T11:44:20.225Z,7.63
2018-12-22T11:46:48.408Z,7.74
2018-12-22T11:49:29.115Z,7.77
2018-12-22T11:51:57.316Z,7.75
2018-12-22T11:54:25.493Z,7.77
2018-12-22T11:56:53.796Z,7.82
2018-12-22T11:59:21.980Z,7.88
2018-12-22T12:01:50.200Z,7.90
2018-12-22T12:04:18.408Z,7.93
2018-12-22T12:06:46.628Z,8.00
2018-12-22T12:09:14.804Z,7.98
2018-12-22T12:11:43.079Z,7.91
2018-12-22T12:14:11.292Z,7.97
2018-12-22T12:16:45.981Z,8.01
2018-12-22T12:19:18.308Z,8.04
2018-12-22T12:21:46.482Z,8.06
2018-12-22T12:24:15.140Z,8.12
2018-12-22T12:26:43.353Z,8.20
2018-12-22T12:29:11.576Z,8.26
2018-12-22T12:31:39.792Z,8.33
2018-12-22T12:34:07.960Z,8.31
2018-12-22T12:36:36.281Z,8.25
2018-12-22T12:39:07.272Z,8.23
2018-12-22T12:41:35.545Z,8.19
2018-12-22T12:44:04.025Z,8.11
2018-12-22T12:46:44.828Z,8.00
2018-12-22T12:49:13.504Z,7.93
2018-12-22T12:51:41.722Z,7.89
2018-12-22T12:54:10.029Z,7.90
2018-12-22T12:56:41.657Z,7.87
2018-12-22T12:59:09.936Z,7.85
2018-12-22T13:01:38.158Z,7.82
2018-12-22T13:04:06.442Z,7.79
2018-12-22T13:06:34.761Z,7.75
2018-12-22T13:09:03.276Z,7.71
2018-12-22T13:11:31.489Z,7.73
2018-12-22T13:14:03.513Z,7.70
2018-12-22T13:16:32.579Z,7.65
2018-12-22T13:19:00.761Z,7.67
2018-12-22T13:21:29.285Z,7.64
2018-12-22T13:23:57.507Z,7.61
2018-12-22T13:26:25.677Z,7.59
2018-12-22T13:28:53.844Z,7.56
2018-12-22T13:31:24.435Z,7.56
2018-12-22T13:33:52.604Z,7.58
2018-12-22T13:36:20.790Z,7.53
2018-12-22T13:39:00.772Z,7.49
2018-12-22T13:41:28.981Z,7.48
2018-12-22T13:43:57.268Z,7.49
2018-12-22T13:46:25.448Z,7.52
2018-12-22T13:48:53.979Z,7.50
2018-12-22T13:51:22.511Z,7.44
2018-12-22T13:53:51.028Z,7.43
2018-12-22T13:56:19.253Z,7.40
2018-12-22T13:58:47.476Z,7.37
2018-12-22T14:01:18.436Z,7.34
2018-12-22T14:03:46.792Z,7.25
2018-12-22T14:06:22.396Z,7.19
2018-12-22T14:08:50.609Z,7.14
2018-12-22T14:11:18.918Z,7.14
2018-12-22T14:13:47.088Z,7.07
2018-12-22T14:18:27.012Z,7.12
2018-12-22T14:20:55.313Z,7.05
2018-12-22T14:23:25.604Z,7.03
2018-12-22T14:25:53.780Z,6.86
2018-12-22T14:28:22.004Z,6.78
2018-12-22T14:30:50.177Z,6.76
2018-12-22T14:33:18.356Z,6.67
2018-12-22T14:35:50.529Z,6.69
2018-12-22T14:38:18.739Z,6.63
2018-12-22T14:40:46.955Z,6.60
2018-12-22T14:43:15.168Z,6.62
2018-12-22T14:45:43.392Z,6.63
2018-12-22T14:48:11.572Z,6.57
2018-12-22T14:50:39.793Z,6.52
2018-12-22T14:53:07.964Z,6.50
2018-12-22T14:55:36.144Z,6.44
2018-12-22T14:58:17.224Z,6.38
2018-12-22T15:00:45.496Z,6.35
2018-12-22T15:03:13.709Z,6.29
2018-12-22T15:05:42.020Z,6.26
2018-12-22T15:08:10.252Z,6.19
2018-12-22T15:10:38.428Z,6.19
2018-12-22T15:13:06.608Z,6.16
2018-12-22T15:15:34.816Z,6.12
2018-12-22T15:18:02.984Z,6.14
2018-12-22T15:20:32.408Z,6.12
2018-12-22T15:23:01.853Z,6.11
2018-12-22T15:25:30.390Z,6.10
2018-12-22T15:27:58.757Z,6.09
2018-12-22T15:30:26.933Z,6.13
2018-12-22T15:32:55.124Z,6.14
2018-12-22T15:35:23.429Z,6.15
2018-12-22T15:37:51.608Z,6.17
2018-12-22T15:40:19.830Z,6.18
2018-12-22T15:42:48.039Z,6.19
2018-12-22T15:45:16.260Z,6.23
2018-12-22T15:47:44.513Z,6.20
2018-12-22T15:50:15.202Z,6.19
2018-12-22T15:52:43.529Z,6.26
2018-12-22T15:55:11.897Z,6.30
2018-12-22T15:57:40.233Z,6.34
2018-12-22T16:00:10.548Z,6.38
2018-12-22T16:02:38.908Z,6.38
2018-12-22T16:05:08.604Z,6.43
2018-12-22T16:07:37.036Z,6.46
2018-12-22T16:10:08.217Z,6.44
2018-12-22T16:12:36.444Z,6.46
2018-12-22T16:15:06.061Z,6.46
2018-12-22T16:17:34.236Z,6.50
2018-12-22T16:20:02.444Z,6.45
2018-12-22T16:22:30.661Z,6.41
2018-12-22T16:24:58.932Z,6.39
2018-12-22T16:27:27.141Z,6.43
2018-12-22T16:29:55.532Z,6.45
2018-12-22T16:32:23.716Z,6.47
2018-12-22T16:34:51.920Z,6.49
2018-12-22T16:37:20.144Z,6.35
2018-12-22T16:39:48.324Z,6.35
2018-12-22T16:42:16.562Z,6.37
2018-12-22T16:44:44.804Z,6.37
2018-12-22T16:47:13.032Z,6.33
2018-12-22T16:49:41.353Z,6.35
2018-12-22T16:52:09.532Z,6.37
2018-12-22T16:54:37.764Z,6.36
2018-12-22T16:57:05.948Z,6.36
2018-12-22T16:59:35.993Z,6.38
2018-12-22T17:02:18.860Z,6.38
2018-12-22T17:04:47.088Z,6.40
2018-12-22T17:07:15.275Z,6.38
2018-12-22T17:09:43.448Z,6.38
2018-12-22T17:12:11.663Z,6.39
2018-12-22T17:14:40.077Z,6.42
2018-12-22T17:17:08.481Z,6.44
2018-12-22T17:19:36.696Z,6.46
2018-12-22T17:22:08.472Z,6.49
2018-12-22T17:24:49.712Z,6.47
2018-12-22T17:27:18.210Z,6.48
2018-12-22T17:29:46.392Z,6.48
2018-12-22T17:32:14.713Z,6.49
2018-12-22T17:34:42.976Z,6.35
2018-12-22T17:37:11.784Z,6.33
2018-12-22T17:39:40.060Z,6.39
2018-12-22T17:42:08.276Z,6.41
2018-12-22T17:44:36.492Z,6.43
2018-12-22T17:47:04.708Z,6.47
2018-12-22T17:49:32.891Z,6.47
2018-12-22T17:52:01.305Z,6.38
2018-12-22T17:54:29.481Z,6.32
2018-12-22T17:56:57.653Z,6.29
2018-12-22T17:59:25.873Z,6.35
2018-12-22T18:01:54.060Z,6.35
2018-12-22T18:04:22.381Z,6.37
2018-12-22T18:06:50.555Z,6.38
2018-12-22T18:09:18.764Z,6.35
2018-12-22T18:11:46.948Z,6.33
2018-12-22T18:14:15.128Z,6.34
2018-12-22T18:16:43.368Z,6.28
2018-12-22T18:19:11.569Z,6.30
2018-12-22T18:21:39.760Z,6.30
2018-12-22T18:24:07.975Z,6.29
2018-12-22T18:26:36.157Z,6.29
2018-12-22T18:29:04.473Z,6.27
2018-12-22T18:31:32.703Z,6.30
2018-12-22T18:34:00.988Z,6.32
2018-12-22T18:36:29.188Z,6.34
2018-12-22T18:38:57.396Z,6.36
2018-12-22T18:41:25.616Z,6.34
2018-12-22T18:43:53.800Z,6.34
2018-12-22T18:46:21.972Z,6.36
2018-12-22T18:48:50.317Z,6.34
2018-12-22T18:51:18.520Z,6.38
2018-12-22T18:53:46.729Z,6.41
2018-12-22T18:56:14.919Z,6.45
2018-12-22T18:58:43.144Z,6.47
2018-12-22T19:01:11.333Z,6.49
2018-12-22T19:03:44.688Z,6.49
2018-12-22T19:06:09.724Z,6.51
2018-12-22T19:08:38.020Z,6.53
2018-12-22T19:11:09.244Z,6.55
2018-12-22T19:13:37.458Z,6.58
2018-12-22T19:16:05.640Z,6.59
2018-12-22T19:18:33.851Z,6.58
2018-12-22T19:21:02.042Z,6.55
2018-12-22T19:23:30.252Z,6.58
2018-12-22T19:25:58.545Z,6.62
2018-12-22T19:28:26.719Z,6.65
2018-12-22T19:30:55.036Z,6.65
2018-12-22T19:33:23.317Z,6.65
2018-12-22T19:35:51.636Z,6.64
2018-12-22T19:38:19.885Z,6.65
2018-12-22T19:40:48.060Z,6.67
2018-12-22T19:43:16.409Z,6.71
2018-12-22T19:45:44.627Z,6.68
2018-12-22T19:48:12.789Z,6.68
2018-12-22T19:50:41.012Z,6.67
2018-12-22T19:53:09.288Z,6.66
2018-12-22T19:55:37.560Z,6.66
2018-12-22T19:58:05.772Z,6.60
2018-12-22T20:00:33.996Z,6.59
2018-12-22T20:03:02.173Z,6.59
2018-12-22T20:05:30.351Z,6.60
2018-12-22T20:07:58.580Z,6.58
2018-12-22T20:10:26.788Z,6.59
2018-12-22T20:12:54.995Z,6.58
2018-12-22T20:15:23.309Z,6.51
2018-12-22T20:17:51.501Z,6.58
2018-12-22T20:20:19.716Z,6.59
2018-12-22T20:22:47.928Z,6.61
2018-12-22T20:25:16.104Z,6.62
2018-12-22T20:27:44.323Z,6.60
2018-12-22T20:30:12.501Z,6.63
2018-12-22T20:32:40.708Z,6.64
2018-12-22T20:35:08.937Z,6.63
2018-12-22T20:37:37.149Z,6.62
2018-12-22T20:40:06.448Z,6.59
2018-12-22T20:42:34.623Z,6.60
2018-12-22T20:45:02.866Z,6.65
2018-12-22T20:47:31.047Z,6.66
2018-12-22T20:49:59.224Z,6.66
2018-12-22T20:52:27.472Z,6.68
2018-12-22T20:54:56.517Z,6.70
2018-12-22T20:57:24.683Z,6.71
2018-12-22T20:59:52.964Z,6.68
2018-12-22T21:02:21.209Z,6.66
2018-12-22T21:04:49.628Z,6.63
2018-12-22T21:07:17.868Z,6.64
2018-12-22T21:09:46.050Z,6.57
2018-12-22T21:12:14.228Z,6.54
2018-12-22T21:14:42.636Z,6.51
2018-12-22T21:17:10.860Z,6.50
2018-12-22T21:19:39.032Z,6.51
2018-12-22T21:22:07.214Z,6.57
2018-12-22T21:24:35.408Z,6.57
2018-12-22T21:27:03.641Z,6.63
2018-12-22T21:29:31.821Z,6.68
2018-12-22T21:32:00.084Z,6.65
2018-12-22T21:34:28.674Z,6.71
2018-12-22T21:36:56.920Z,6.71
2018-12-22T21:39:25.140Z,6.68
2018-12-22T21:41:53.355Z,6.73
2018-12-22T21:44:22.141Z,6.66
2018-12-22T21:46:50.320Z,6.65
2018-12-22T21:49:18.501Z,6.64
2018-12-22T21:51:46.716Z,6.64
2018-12-22T21:54:14.989Z,6.66
2018-12-22T21:56:43.206Z,6.63
2018-12-22T21:59:11.374Z,6.65
2018-12-22T22:01:39.604Z,6.65
2018-12-22T22:04:07.812Z,6.69
2018-12-22T22:06:36.008Z,6.70
2018-12-22T22:09:05.568Z,6.68
2018-12-22T22:11:33.740Z,6.76
2018-12-22T22:14:01.920Z,6.80
2018-12-22T22:16:30.139Z,6.81
2018-12-22T22:18:58.352Z,6.81
2018-12-22T22:21:26.520Z,6.87
2018-12-22T22:23:54.760Z,6.88
2018-12-22T22:26:23.056Z,6.93
2018-12-22T22:28:51.240Z,6.96
2018-12-22T22:31:19.612Z,7.00
2018-12-22T22:33:47.789Z,7.01
2018-12-22T22:36:15.996Z,7.05
2018-12-22T22:38:44.228Z,7.06
2018-12-22T22:41:12.416Z,7.08
2018-12-22T22:43:40.588Z,7.09
2018-12-22T22:46:08.859Z,7.13
2018-12-22T22:48:37.092Z,7.17
2018-12-22T22:51:05.266Z,7.16
2018-12-22T22:53:33.486Z,7.12
2018-12-22T22:56:01.665Z,7.10
2018-12-22T22:58:29.898Z,7.10
2018-12-22T23:00:58.216Z,7.08
2018-12-22T23:03:26.464Z,7.09
2018-12-22T23:05:54.636Z,7.12
2018-12-22T23:08:22.840Z,7.13
2018-12-22T23:10:51.046Z,7.17
2018-12-22T23:13:19.209Z,7.16
2018-12-22T23:15:47.444Z,7.17
2018-12-22T23:18:15.656Z,7.20
2018-12-22T23:20:43.851Z,7.21
2018-12-22T23:23:12.092Z,7.25
2018-12-22T23:25:40.308Z,7.32
2018-12-22T23:28:08.533Z,7.37
2018-12-22T23:30:36.736Z,7.42
2018-12-22T23:33:04.926Z,7.42
2018-12-22T23:35:33.173Z,7.43
2018-12-22T23:38:01.409Z,7.43
2018-12-22T23:40:29.584Z,7.45
2018-12-22T23:42:57.759Z,7.48
2018-12-22T23:45:25.968Z,7.48
2018-12-22T23:47:54.168Z,7.50
2018-12-22T23:50:22.464Z,7.45
2018-12-22T23:52:50.688Z,7.48
2018-12-22T23:55:18.860Z,7.49
2018-12-22T23:57:47.028Z,7.45
